sensor_id;sensor_type;location;lat;lon;timestamp;P1;durP1;ratioP1;P2;durP2;ratioP2
25649;SDS011;13505;45.196;5.696;2022-10-26T04:04:11;7.25;;;3.30;;
25649;SDS011;13505;45.196;5.696;2022-10-26T04:09:02;9.77;;;3.13;;
25649;SDS011;13505;45.196;5.696;2022-10-26T04:13:53;9.88;;;3.80;;
25649;SDS011;13505;45.196;5.696;2022-10-26T04:18:44;6.88;;;3.50;;
25649;SDS011;13505;45.196;5.696;2022-10-26T04:23:35;5.38;;;3.30;;
25649;SDS011;13505;45.196;5.696;2022-10-26T04:28:25;14.40;;;3.50;;
25649;SDS011;13505;45.196;5.696;2022-10-26T04:33:15;13.48;;;3.30;;
25649;SDS011;13505;45.196;5.696;2022-10-26T04:38:06;9.15;;;3.53;;
25649;SDS011;13505;45.196;5.696;2022-10-26T04:42:56;10.30;;;3.55;;
25649;SDS011;13505;45.196;5.696;2022-10-26T04:47:47;6.95;;;3.42;;
25649;SDS011;13505;45.196;5.696;2022-10-26T04:52:37;9.18;;;3.55;;
25649;SDS011;13505;45.196;5.696;2022-10-26T04:57:28;7.72;;;3.65;;
25649;SDS011;13505;45.196;5.696;2022-10-26T05:02:18;5.90;;;3.80;;
25649;SDS011;13505;45.196;5.696;2022-10-26T05:07:10;9.43;;;3.70;;
25649;SDS011;13505;45.196;5.696;2022-10-26T05:12:00;10.00;;;3.80;;
25649;SDS011;13505;45.196;5.696;2022-10-26T05:16:50;8.93;;;3.63;;
25649;SDS011;13505;45.196;5.696;2022-10-26T05:21:40;9.88;;;4.00;;
25649;SDS011;13505;45.196;5.696;2022-10-26T05:26:31;12.30;;;4.13;;
25649;SDS011;13505;45.196;5.696;2022-10-26T05:31:21;9.50;;;4.87;;
25649;SDS011;13505;45.196;5.696;2022-10-26T05:36:11;10.90;;;4.65;;
25649;SDS011;13505;45.196;5.696;2022-10-26T05:41:02;15.33;;;4.90;;
25649;SDS011;13505;45.196;5.696;2022-10-26T05:45:52;7.07;;;4.40;;
25649;SDS011;13505;45.196;5.696;2022-10-26T05:50:43;9.07;;;4.38;;
25649;SDS011;13505;45.196;5.696;2022-10-26T05:55:34;9.65;;;4.55;;
25649;SDS011;13505;45.196;5.696;2022-10-26T06:00:25;9.95;;;4.00;;
25649;SDS011;13505;45.196;5.696;2022-10-26T06:05:21;16.02;;;4.75;;
25649;SDS011;13505;45.196;5.696;2022-10-26T06:10:15;13.50;;;4.68;;
25649;SDS011;13505;45.196;5.696;2022-10-26T06:15:06;17.27;;;6.80;;
25649;SDS011;13505;45.196;5.696;2022-10-26T06:30:16;10.63;;;4.45;;
25649;SDS011;13505;45.196;5.696;2022-10-26T06:35:28;18.40;;;5.18;;
25649;SDS011;13505;45.196;5.696;2022-10-26T06:40:25;13.27;;;4.65;;
25649;SDS011;13505;45.196;5.696;2022-10-26T06:45:20;10.10;;;4.55;;
25649;SDS011;13505;45.196;5.696;2022-10-26T06:55:19;10.13;;;4.53;;
25649;SDS011;13505;45.196;5.696;2022-10-26T07:00:18;20.98;;;5.28;;
25649;SDS011;13505;45.196;5.696;2022-10-26T07:05:10;12.57;;;5.40;;
25649;SDS011;13505;45.196;5.696;2022-10-26T07:10:02;26.80;;;13.63;;
25649;SDS011;13505;45.196;5.696;2022-10-26T07:14:52;12.15;;;4.72;;
25649;SDS011;13505;45.196;5.696;2022-10-26T07:19:42;11.23;;;5.70;;
25649;SDS011;13505;45.196;5.696;2022-10-26T07:24:33;15.35;;;4.68;;
25649;SDS011;13505;45.196;5.696;2022-10-26T07:29:24;14.43;;;5.32;;
25649;SDS011;13505;45.196;5.696;2022-10-26T07:34:15;10.30;;;4.03;;
25649;SDS011;13505;45.196;5.696;2022-10-26T07:39:06;10.70;;;4.60;;
25649;SDS011;13505;45.196;5.696;2022-10-26T07:43:56;9.85;;;4.53;;
25649;SDS011;13505;45.196;5.696;2022-10-26T07:48:47;18.23;;;5.57;;
25649;SDS011;13505;45.196;5.696;2022-10-26T07:53:37;10.38;;;4.90;;
25649;SDS011;13505;45.196;5.696;2022-10-26T07:58:27;12.90;;;4.60;;
25649;SDS011;13505;45.196;5.696;2022-10-26T08:03:18;12.18;;;5.53;;
25649;SDS011;13505;45.196;5.696;2022-10-26T08:08:09;15.18;;;5.45;;
25649;SDS011;13505;45.196;5.696;2022-10-26T08:12:59;15.32;;;4.80;;
25649;SDS011;13505;45.196;5.696;2022-10-26T08:17:49;17.90;;;6.05;;
25649;SDS011;13505;45.196;5.696;2022-10-26T08:22:40;15.30;;;5.70;;
25649;SDS011;13505;45.196;5.696;2022-10-26T08:27:30;21.53;;;6.03;;
25649;SDS011;13505;45.196;5.696;2022-10-26T08:32:21;12.68;;;5.20;;
25649;SDS011;13505;45.196;5.696;2022-10-26T08:37:12;13.40;;;6.07;;
25649;SDS011;13505;45.196;5.696;2022-10-26T08:42:18;14.32;;;5.72;;
25649;SDS011;13505;45.196;5.696;2022-10-26T08:47:21;10.10;;;5.10;;
25649;SDS011;13505;45.196;5.696;2022-10-26T08:52:16;14.98;;;5.53;;
25649;SDS011;13505;45.196;5.696;2022-10-26T08:57:13;14.93;;;5.47;;
25649;SDS011;13505;45.196;5.696;2022-10-26T09:02:10;9.93;;;5.05;;
25649;SDS011;13505;45.196;5.696;2022-10-26T09:07:05;16.52;;;5.57;;
25649;SDS011;13505;45.196;5.696;2022-10-26T09:17:21;11.20;;;5.05;;
25649;SDS011;13505;45.196;5.696;2022-10-26T09:22:39;15.95;;;4.78;;
25649;SDS011;13505;45.196;5.696;2022-10-26T09:27:38;17.27;;;4.70;;
25649;SDS011;13505;45.196;5.696;2022-10-26T09:32:34;12.13;;;4.43;;
25649;SDS011;13505;45.196;5.696;2022-10-26T09:37:31;12.30;;;4.22;;
25649;SDS011;13505;45.196;5.696;2022-10-26T09:42:35;14.25;;;4.07;;
25649;SDS011;13505;45.196;5.696;2022-10-26T09:47:32;10.23;;;4.30;;
25649;SDS011;13505;45.196;5.696;2022-10-26T09:52:26;13.52;;;4.40;;
25649;SDS011;13505;45.196;5.696;2022-10-26T09:57:17;9.43;;;4.50;;
25649;SDS011;13505;45.196;5.696;2022-10-26T10:07:26;9.25;;;3.85;;
25649;SDS011;13505;45.196;5.696;2022-10-26T10:12:19;16.98;;;4.03;;
25649;SDS011;13505;45.196;5.696;2022-10-26T10:17:19;11.60;;;4.25;;
25649;SDS011;13505;45.196;5.696;2022-10-26T10:22:17;17.27;;;4.30;;
25649;SDS011;13505;45.196;5.696;2022-10-26T10:32:04;16.02;;;4.53;;
25649;SDS011;13505;45.196;5.696;2022-10-26T10:36:55;15.15;;;4.15;;
25649;SDS011;13505;45.196;5.696;2022-10-26T10:41:48;15.15;;;4.55;;
25649;SDS011;13505;45.196;5.696;2022-10-26T10:46:38;17.38;;;5.38;;
25649;SDS011;13505;45.196;5.696;2022-10-26T10:51:29;11.70;;;4.32;;
25649;SDS011;13505;45.196;5.696;2022-10-26T11:01:20;13.77;;;4.63;;
25649;SDS011;13505;45.196;5.696;2022-10-26T11:06:16;11.95;;;3.85;;
25649;SDS011;13505;45.196;5.696;2022-10-26T11:11:11;11.05;;;5.63;;
25649;SDS011;13505;45.196;5.696;2022-10-26T11:16:08;19.60;;;4.50;;
25649;SDS011;13505;45.196;5.696;2022-10-26T11:21:04;12.93;;;4.38;;
25649;SDS011;13505;45.196;5.696;2022-10-26T11:31:05;8.50;;;3.85;;
25649;SDS011;13505;45.196;5.696;2022-10-26T11:36:11;16.65;;;3.92;;
25649;SDS011;13505;45.196;5.696;2022-10-26T11:46:19;7.82;;;3.95;;
25649;SDS011;13505;45.196;5.696;2022-10-26T11:51:19;9.77;;;3.70;;
25649;SDS011;13505;45.196;5.696;2022-10-26T11:56:31;9.45;;;3.72;;
25649;SDS011;13505;45.196;5.696;2022-10-26T12:01:27;15.27;;;3.65;;
25649;SDS011;13505;45.196;5.696;2022-10-26T12:06:19;11.60;;;4.00;;
25649;SDS011;13505;45.196;5.696;2022-10-26T12:21:40;11.70;;;3.83;;
25649;SDS011;13505;45.196;5.696;2022-10-26T12:41:45;9.55;;;3.25;;
25649;SDS011;13505;45.196;5.696;2022-10-26T12:46:45;11.57;;;3.72;;
25649;SDS011;13505;45.196;5.696;2022-10-26T12:56:36;9.15;;;3.13;;
25649;SDS011;13505;45.196;5.696;2022-10-26T13:07:16;12.55;;;4.30;;
25649;SDS011;13505;45.196;5.696;2022-10-26T13:12:24;17.50;;;4.10;;
25649;SDS011;13505;45.196;5.696;2022-10-26T13:17:26;13.45;;;3.88;;
25649;SDS011;13505;45.196;5.696;2022-10-26T13:22:19;12.00;;;3.72;;
25649;SDS011;13505;45.196;5.696;2022-10-26T13:32:00;11.63;;;3.97;;
25649;SDS011;13505;45.196;5.696;2022-10-26T13:37:02;14.77;;;4.00;;
25649;SDS011;13505;45.196;5.696;2022-10-26T13:42:00;12.57;;;3.85;;
25649;SDS011;13505;45.196;5.696;2022-10-26T13:46:53;13.38;;;4.22;;
25649;SDS011;13505;45.196;5.696;2022-10-26T13:51:48;16.92;;;4.78;;
25649;SDS011;13505;45.196;5.696;2022-10-26T13:56:42;11.43;;;4.05;;
25649;SDS011;13505;45.196;5.696;2022-10-26T14:01:39;14.57;;;3.97;;
25649;SDS011;13505;45.196;5.696;2022-10-26T14:06:33;14.90;;;3.80;;
25649;SDS011;13505;45.196;5.696;2022-10-26T14:11:33;11.25;;;3.90;;
25649;SDS011;13505;45.196;5.696;2022-10-26T14:16:39;12.60;;;3.70;;
25649;SDS011;13505;45.196;5.696;2022-10-26T14:21:38;11.10;;;4.22;;
25649;SDS011;13505;45.196;5.696;2022-10-26T14:26:36;15.45;;;3.42;;
25649;SDS011;13505;45.196;5.696;2022-10-26T14:31:31;12.20;;;3.88;;
25649;SDS011;13505;45.196;5.696;2022-10-26T14:36:39;13.48;;;4.20;;
25649;SDS011;13505;45.196;5.696;2022-10-26T14:41:33;14.40;;;3.53;;
25649;SDS011;13505;45.196;5.696;2022-10-26T14:46:25;13.02;;;3.55;;
25649;SDS011;13505;45.196;5.696;2022-10-26T14:51:18;17.27;;;3.47;;
25649;SDS011;13505;45.196;5.696;2022-10-26T14:56:21;11.90;;;3.70;;
25649;SDS011;13505;45.196;5.696;2022-10-26T15:11:18;13.32;;;3.45;;
25649;SDS011;13505;45.196;5.696;2022-10-26T15:16:09;13.40;;;3.93;;
25649;SDS011;13505;45.196;5.696;2022-10-26T15:21:15;17.95;;;4.68;;
25649;SDS011;13505;45.196;5.696;2022-10-26T15:26:06;12.77;;;3.70;;
25649;SDS011;13505;45.196;5.696;2022-10-26T15:31:05;13.40;;;3.80;;
25649;SDS011;13505;45.196;5.696;2022-10-26T15:40:56;14.98;;;3.63;;
25649;SDS011;13505;45.196;5.696;2022-10-26T15:45:47;10.33;;;3.93;;
25649;SDS011;13505;45.196;5.696;2022-10-26T15:50:37;18.83;;;5.05;;
25649;SDS011;13505;45.196;5.696;2022-10-26T15:55:28;14.13;;;4.53;;
25649;SDS011;13505;45.196;5.696;2022-10-26T16:00:19;16.65;;;4.45;;
25649;SDS011;13505;45.196;5.696;2022-10-26T16:05:11;17.92;;;4.45;;
25649;SDS011;13505;45.196;5.696;2022-10-26T16:10:02;17.45;;;4.25;;
25649;SDS011;13505;45.196;5.696;2022-10-26T16:14:53;17.80;;;4.88;;
25649;SDS011;13505;45.196;5.696;2022-10-26T16:19:43;15.27;;;4.90;;
25649;SDS011;13505;45.196;5.696;2022-10-26T16:24:34;14.35;;;5.40;;
25649;SDS011;13505;45.196;5.696;2022-10-26T16:29:25;19.40;;;4.28;;
25649;SDS011;13505;45.196;5.696;2022-10-26T16:34:15;12.73;;;4.55;;
25649;SDS011;13505;45.196;5.696;2022-10-26T16:39:06;13.27;;;4.22;;
25649;SDS011;13505;45.196;5.696;2022-10-26T16:44:00;13.95;;;5.10;;
25649;SDS011;13505;45.196;5.696;2022-10-26T16:48:50;14.37;;;4.90;;
25649;SDS011;13505;45.196;5.696;2022-10-26T16:53:41;24.73;;;5.35;;
25649;SDS011;13505;45.196;5.696;2022-10-26T16:58:31;13.68;;;4.65;;
25649;SDS011;13505;45.196;5.696;2022-10-26T17:03:22;22.17;;;4.90;;
25649;SDS011;13505;45.196;5.696;2022-10-26T17:08:13;10.93;;;4.70;;
25649;SDS011;13505;45.196;5.696;2022-10-26T17:13:03;16.77;;;5.13;;
25649;SDS011;13505;45.196;5.696;2022-10-26T17:17:53;15.20;;;4.93;;
25649;SDS011;13505;45.196;5.696;2022-10-26T17:22:44;21.83;;;5.30;;
25649;SDS011;13505;45.196;5.696;2022-10-26T17:27:34;12.93;;;4.63;;
25649;SDS011;13505;45.196;5.696;2022-10-26T17:32:24;12.10;;;4.05;;
25649;SDS011;13505;45.196;5.696;2022-10-26T17:37:15;15.17;;;5.47;;
25649;SDS011;13505;45.196;5.696;2022-10-26T17:42:05;19.55;;;6.00;;
25649;SDS011;13505;45.196;5.696;2022-10-26T17:46:55;16.60;;;5.93;;
25649;SDS011;13505;45.196;5.696;2022-10-26T17:51:45;26.63;;;6.82;;
25649;SDS011;13505;45.196;5.696;2022-10-26T17:56:36;17.85;;;6.38;;
25649;SDS011;13505;45.196;5.696;2022-10-26T18:01:26;16.63;;;6.28;;
25649;SDS011;13505;45.196;5.696;2022-10-26T18:06:18;18.25;;;5.60;;
25649;SDS011;13505;45.196;5.696;2022-10-26T18:11:11;12.70;;;5.15;;
25649;SDS011;13505;45.196;5.696;2022-10-26T18:16:04;18.10;;;5.43;;
25649;SDS011;13505;45.196;5.696;2022-10-26T18:21:07;29.83;;;5.75;;
25649;SDS011;13505;45.196;5.696;2022-10-26T18:25:59;20.63;;;6.03;;
25649;SDS011;13505;45.196;5.696;2022-10-26T18:30:51;17.83;;;5.75;;
25649;SDS011;13505;45.196;5.696;2022-10-26T18:35:41;15.32;;;6.05;;
25649;SDS011;13505;45.196;5.696;2022-10-26T18:40:32;14.60;;;6.60;;
25649;SDS011;13505;45.196;5.696;2022-10-26T18:45:22;22.38;;;7.38;;
25649;SDS011;13505;45.196;5.696;2022-10-26T18:50:12;14.55;;;7.80;;
25649;SDS011;13505;45.196;5.696;2022-10-26T18:55:03;22.10;;;7.72;;
25649;SDS011;13505;45.196;5.696;2022-10-26T18:59:54;21.48;;;7.20;;
25649;SDS011;13505;45.196;5.696;2022-10-26T19:04:45;16.90;;;6.80;;
25649;SDS011;13505;45.196;5.696;2022-10-26T19:09:35;13.88;;;6.75;;
25649;SDS011;13505;45.196;5.696;2022-10-26T19:14:25;16.65;;;6.43;;
25649;SDS011;13505;45.196;5.696;2022-10-26T19:19:16;18.90;;;6.72;;
25649;SDS011;13505;45.196;5.696;2022-10-26T19:24:14;16.00;;;5.88;;
25649;SDS011;13505;45.196;5.696;2022-10-26T19:29:06;19.58;;;6.35;;
25649;SDS011;13505;45.196;5.696;2022-10-26T19:34:00;19.95;;;6.88;;
25649;SDS011;13505;45.196;5.696;2022-10-26T19:38:52;23.83;;;7.07;;
25649;SDS011;13505;45.196;5.696;2022-10-26T19:43:43;17.85;;;6.70;;
25649;SDS011;13505;45.196;5.696;2022-10-26T19:48:34;30.73;;;7.70;;
25649;SDS011;13505;45.196;5.696;2022-10-26T19:53:24;16.35;;;7.40;;
25649;SDS011;13505;45.196;5.696;2022-10-26T19:58:15;21.30;;;7.30;;
25649;SDS011;13505;45.196;5.696;2022-10-26T20:03:05;18.07;;;6.60;;
25649;SDS011;13505;45.196;5.696;2022-10-26T20:07:56;17.67;;;6.13;;
25649;SDS011;13505;45.196;5.696;2022-10-26T20:12:46;14.73;;;6.20;;
25649;SDS011;13505;45.196;5.696;2022-10-26T20:17:37;19.50;;;6.55;;
25649;SDS011;13505;45.196;5.696;2022-10-26T20:22:27;17.60;;;6.53;;
25649;SDS011;13505;45.196;5.696;2022-10-26T20:27:17;15.70;;;6.07;;
25649;SDS011;13505;45.196;5.696;2022-10-26T20:32:08;17.75;;;6.70;;
25649;SDS011;13505;45.196;5.696;2022-10-26T20:36:59;13.43;;;6.38;;
25649;SDS011;13505;45.196;5.696;2022-10-26T20:41:50;17.30;;;6.75;;
25649;SDS011;13505;45.196;5.696;2022-10-26T20:46:40;20.67;;;7.03;;
25649;SDS011;13505;45.196;5.696;2022-10-26T20:51:48;15.25;;;6.75;;
25649;SDS011;13505;45.196;5.696;2022-10-26T20:56:41;18.00;;;9.18;;
25649;SDS011;13505;45.196;5.696;2022-10-26T21:01:33;17.35;;;7.60;;
25649;SDS011;13505;45.196;5.696;2022-10-26T21:06:24;14.15;;;6.53;;
25649;SDS011;13505;45.196;5.696;2022-10-26T21:11:15;14.75;;;6.40;;
25649;SDS011;13505;45.196;5.696;2022-10-26T21:16:07;20.83;;;6.57;;
25649;SDS011;13505;45.196;5.696;2022-10-26T21:20:58;10.57;;;6.40;;
25649;SDS011;13505;45.196;5.696;2022-10-26T21:25:49;19.27;;;6.97;;
25649;SDS011;13505;45.196;5.696;2022-10-26T21:30:43;21.70;;;7.85;;
25649;SDS011;13505;45.196;5.696;2022-10-26T21:35:33;21.40;;;7.95;;
25649;SDS011;13505;45.196;5.696;2022-10-26T21:40:24;25.02;;;7.85;;
25649;SDS011;13505;45.196;5.696;2022-10-26T21:45:14;23.27;;;7.63;;
25649;SDS011;13505;45.196;5.696;2022-10-26T21:50:04;21.63;;;7.95;;
25649;SDS011;13505;45.196;5.696;2022-10-26T21:54:55;16.88;;;6.65;;
25649;SDS011;13505;45.196;5.696;2022-10-26T21:59:45;17.83;;;6.63;;
